Terminal Aerodrome Forecast
Issued by NWS

Home | Current Version | Previous Version | Text Only | Print | Product List | Glossary On
Versions: 1 2 3 4 5 6 7 8 9 10 11 12
000
FTUS45 KGJT 011727
TAFDRO
TAF
KDRO 011727Z 0118/0218 VRB04KT P6SM SKC
     FM012100 25009KT P6SM FEW090 SCT200
     FM020300 31005KT P6SM SKC
     FM021400 00000KT P6SM SKC=

USA.gov is the U.S. government's official web portal to all federal, state and local government web resources and services.